Time;durP1;ratioP1;P1;durP2;ratioP2;P2;SDS_P1;SDS_P2;PMS_P1;PMS_P2;Temp;Humidity;BMP_temperature;BMP_pressure;BME280_temperature;BME280_humidity;BME280_pressure;Samples;Min_cycle;Max_cycle;Signal;HPM_P1;HPM_P2
2020/12/20 00:01:50;;;;;;;;;;;;;;;;;;5127781;27;1573;-64
2020/12/20 00:04:15;;;;;;;;;;;;;;;;;;5131382;27;1890;-64
2020/12/20 00:06:40;;;;;;;;;;;;;;;;;;5149677;27;893;-63
2020/12/20 00:09:06;;;;;;;;;;;;;;;;;;5149316;27;869;-64
2020/12/20 00:11:31;;;;;;;;;;;;;;;;;;5147788;27;1452;-64
2020/12/20 00:13:56;;;;;;;;;;;;;;;;;;5139346;27;1549;-63
2020/12/20 00:16:21;;;;;;;;;;;;;;;;;;5149149;27;900;-64
2020/12/20 00:18:46;;;;;;;;;;;;;;;;;;5144801;27;1689;-64
2020/12/20 00:21:11;;;;;;;;;;;;;;;;;;5139275;27;1516;-65
2020/12/20 00:23:36;;;;;;;;;;;;;;;;;;5142371;27;1976;-64
2020/12/20 00:26:02;;;;;;;;;;;;;;;;;;5130359;27;1508;-63
2020/12/20 00:28:27;;;;;;;;;;;;;;;;;;5129351;28;917;-65
2020/12/20 00:30:52;;;;;;;;;;;;;;;;;;5110550;28;878;-64
2020/12/20 00:33:17;;;;;;;;;;;;;;;;;;5110284;27;1601;-63
2020/12/20 00:35:43;;;;;;;;;;;;;;;;;;5146662;27;1566;-64
2020/12/20 00:38:08;;;;;;;;;;;;;;;;;;5141884;27;1508;-62
2020/12/20 00:40:33;;;;;;;;;;;;;;;;;;5128441;27;1522;-63
2020/12/20 00:42:58;;;;;;;;;;;;;;;;;;5142812;27;1886;-64
2020/12/20 00:45:24;;;;;;;;;;;;;;;;;;5149890;27;826;-65
2020/12/20 00:47:49;;;;;;;;;;;;;;;;;;5149456;27;849;-64
2020/12/20 00:50:14;;;;;;;;;;;;;;;;;;5130946;27;1455;-64
2020/12/20 00:52:39;;;;;;;;;;;;;;;;;;5153905;27;917;-64
2020/12/20 00:55:04;;;;;;;;;;;;;;;;;;5153215;27;850;-64
2020/12/20 00:57:30;;;;;;;;;;;;;;;;;;5154012;27;874;-64
2020/12/20 00:59:55;;;;;;;;;;;;;;;;;;5151341;27;1597;-64
2020/12/20 01:02:20;;;;;;;;;;;;;;;;;;5152903;27;1958;-64
2020/12/20 01:04:45;;;;;;;;;;;;;;;;;;5150476;27;1704;-64
2020/12/20 01:07:10;;;;;;;;;;;;;;;;;;5127271;27;1483;-64
2020/12/20 01:09:35;;;;;;;;;;;;;;;;;;5152170;27;897;-65
2020/12/20 01:12:01;;;;;;;;;;;;;;;;;;5147095;27;1505;-65
2020/12/20 01:14:27;;;;;;;;;;;;;;;;;;5141966;27;1579;-64
2020/12/20 01:16:52;;;;;;;;;;;;;;;;;;5138075;27;1518;-64
2020/12/20 01:19:17;;;;;;;;;;;;;;;;;;5147277;27;1528;-64
2020/12/20 01:21:42;;;;;;;;;;;;;;;;;;5150133;27;1483;-64
2020/12/20 01:24:07;;;;;;;;;;;;;;;;;;5133988;27;1952;-64
2020/12/20 01:26:32;;;;;;;;;;;;;;;;;;5148674;27;1677;-65
2020/12/20 01:28:58;;;;;;;;;;;;;;;;;;5136100;27;1426;-64
2020/12/20 01:31:23;;;;;;;;;;;;;;;;;;5145834;27;1458;-64
2020/12/20 01:33:48;;;;;;;;;;;;;;;;;;5131443;27;1554;-63
2020/12/20 01:36:13;;;;;;;;;;;;;;;;;;5148793;27;1534;-64
2020/12/20 01:38:38;;;;;;;;;;;;;;;;;;5152975;27;822;-63
2020/12/20 01:41:03;;;;;;;;;;;;;;;;;;5151790;27;849;-65
2020/12/20 01:43:28;;;;;;;;;;;;;;;;;;5132421;27;1943;-63
2020/12/20 01:45:54;;;;;;;;;;;;;;;;;;5152345;27;1031;-64
2020/12/20 01:48:21;;;;;;;;;;;;;;;;;;5152440;27;886;-64
2020/12/20 01:50:46;;;;;;;;;;;;;;;;;;5150278;27;1418;-65
2020/12/20 01:53:12;;;;;;;;;;;;;;;;;;5142742;27;1711;-64
2020/12/20 01:55:37;;;;;;;;;;;;;;;;;;5148974;27;1567;-64
2020/12/20 01:58:02;;;;;;;;;;;;;;;;;;5129635;27;1560;-63
2020/12/20 02:00:27;;;;;;;;;;;;;;;;;;5137032;27;1398;-64
2020/12/20 02:02:52;;;;;;;;;;;;;;;;;;5139693;27;1894;-63
2020/12/20 02:05:17;;;;;;;;;;;;;;;;;;5130827;27;1415;-63
2020/12/20 02:07:42;;;;;;;;;;;;;;;;;;5147070;27;1429;-64
2020/12/20 02:10:08;;;;;;;;;;;;;;;;;;5138395;27;1606;-64
2020/12/20 02:12:33;;;;;;;;;;;;;;;;;;5129182;27;1498;-65
2020/12/20 02:14:58;;;;;;;;;;;;;;;;;;5147069;27;1483;-64
2020/12/20 02:17:23;;;;;;;;;;;;;;;;;;5150478;27;1311;-64
2020/12/20 02:19:48;;;;;;;;;;;;;;;;;;5136478;27;1559;-64
2020/12/20 02:22:13;;;;;;;;;;;;;;;;;;5128987;27;1520;-65
2020/12/20 02:24:38;;;;;;;;;;;;;;;;;;5144493;27;1960;-64
2020/12/20 02:27:04;;;;;;;;;;;;;;;;;;5149575;27;1391;-64
2020/12/20 02:29:29;;;;;;;;;;;;;;;;;;5150886;27;1342;-64
2020/12/20 02:31:54;;;;;;;;;;;;;;;;;;5149337;27;1358;-64
2020/12/20 02:34:19;;;;;;;;;;;;;;;;;;5134239;27;1603;-63
2020/12/20 02:36:44;;;;;;;;;;;;;;;;;;5146339;27;1572;-64
2020/12/20 02:39:09;;;;;;;;;;;;;;;;;;5151698;27;838;-64
2020/12/20 02:41:35;;;;;;;;;;;;;;;;;;5149517;27;1591;-64
2020/12/20 02:44:00;;;;;;;;;;;;;;;;;;5152560;27;1945;-64
2020/12/20 02:46:25;;;;;;;;;;;;;;;;;;5146222;27;1600;-64
2020/12/20 02:48:50;;;;;;;;;;;;;;;;;;5148633;27;1558;-64
2020/12/20 02:51:15;;;;;;;;;;;;;;;;;;5146921;27;1558;-63
2020/12/20 02:53:40;;;;;;;;;;;;;;;;;;5148672;27;1614;-64
2020/12/20 02:56:06;;;;;;;;;;;;;;;;;;5147735;27;1644;-64
2020/12/20 02:58:31;;;;;;;;;;;;;;;;;;5144100;27;1455;-63
2020/12/20 03:00:56;;;;;;;;;;;;;;;;;;5130577;27;890;-65
2020/12/20 03:03:21;;;;;;;;;;;;;;;;;;5135821;27;1972;-64
2020/12/20 03:05:46;;;;;;;;;;;;;;;;;;5151530;27;912;-64
2020/12/20 03:08:11;;;;;;;;;;;;;;;;;;5150291;27;833;-64
2020/12/20 03:10:37;;;;;;;;;;;;;;;;;;5151457;27;822;-64
2020/12/20 03:13:02;;;;;;;;;;;;;;;;;;5138989;27;1462;-65
2020/12/20 03:15:27;;;;;;;;;;;;;;;;;;5140162;27;1578;-64
2020/12/20 03:17:52;;;;;;;;;;;;;;;;;;5149893;27;874;-64
2020/12/20 03:20:17;;;;;;;;;;;;;;;;;;5150264;27;877;-64
2020/12/20 03:22:42;;;;;;;;;;;;;;;;;;5143660;27;1893;-63
2020/12/20 03:25:08;;;;;;;;;;;;;;;;;;5129236;27;1486;-63
2020/12/20 03:27:33;;;;;;;;;;;;;;;;;;5128741;27;885;-63
2020/12/20 03:29:58;;;;;;;;;;;;;;;;;;5130029;27;1768;-63
2020/12/20 03:32:23;;;;;;;;;;;;;;;;;;5130023;27;881;-63
2020/12/20 03:34:48;;;;;;;;;;;;;;;;;;5129555;27;877;-64
2020/12/20 03:37:13;;;;;;;;;;;;;;;;;;5131917;27;1620;-63
2020/12/20 03:39:39;;;;;;;;;;;;;;;;;;5148161;27;1504;-63
2020/12/20 03:42:04;;;;;;;;;;;;;;;;;;5149287;27;1803;-63
2020/12/20 03:44:29;;;;;;;;;;;;;;;;;;5141177;27;2292;-63
2020/12/20 03:46:54;;;;;;;;;;;;;;;;;;5132537;27;1625;-64
2020/12/20 03:49:19;;;;;;;;;;;;;;;;;;5144645;27;1437;-63
2020/12/20 03:51:45;;;;;;;;;;;;;;;;;;5149113;27;885;-63
2020/12/20 03:54:10;;;;;;;;;;;;;;;;;;5134800;27;1543;-63
2020/12/20 03:56:35;;;;;;;;;;;;;;;;;;5129439;27;830;-64
2020/12/20 03:59:00;;;;;;;;;;;;;;;;;;5137402;27;1644;-62
2020/12/20 04:01:25;;;;;;;;;;;;;;;;;;5148637;27;1316;-64
2020/12/20 04:03:50;;;;;;;;;;;;;;;;;;5148983;27;1954;-63
2020/12/20 04:06:15;;;;;;;;;;;;;;;;;;5149365;27;876;-64
2020/12/20 04:08:41;;;;;;;;;;;;;;;;;;5150011;27;916;-64
2020/12/20 04:11:06;;;;;;;;;;;;;;;;;;5144405;27;1602;-64
2020/12/20 04:13:32;;;;;;;;;;;;;;;;;;5148644;27;1356;-65
2020/12/20 04:15:57;;;;;;;;;;;;;;;;;;5149600;27;884;-63
2020/12/20 04:18:22;;;;;;;;;;;;;;;;;;5149148;27;849;-64
2020/12/20 04:20:47;;;;;;;;;;;;;;;;;;5148571;27;1666;-63
2020/12/20 04:23:13;;;;;;;;;;;;;;;;;;5138029;27;1957;-65
2020/12/20 04:25:38;;;;;;;;;;;;;;;;;;5137172;27;1781;-63
2020/12/20 04:28:03;;;;;;;;;;;;;;;;;;5153116;27;850;-63
2020/12/20 04:30:28;;;;;;;;;;;;;;;;;;5155178;27;889;-63
2020/12/20 04:32:53;;;;;;;;;;;;;;;;;;5152557;27;1488;-63
2020/12/20 04:35:18;;;;;;;;;;;;;;;;;;5137067;27;1489;-63
2020/12/20 04:37:44;;;;;;;;;;;;;;;;;;5146623;27;1011;-64
2020/12/20 04:40:09;;;;;;;;;;;;;;;;;;5153154;27;829;-64
2020/12/20 04:42:34;;;;;;;;;;;;;;;;;;5148403;27;1889;-64
2020/12/20 04:44:59;;;;;;;;;;;;;;;;;;5153428;27;1450;-64
2020/12/20 04:47:24;;;;;;;;;;;;;;;;;;5152017;27;1231;-64
2020/12/20 04:49:50;;;;;;;;;;;;;;;;;;5135342;27;1625;-64
2020/12/20 04:52:15;;;;;;;;;;;;;;;;;;5152112;27;1595;-64
2020/12/20 04:54:40;;;;;;;;;;;;;;;;;;5152565;27;1538;-64
2020/12/20 04:57:05;;;;;;;;;;;;;;;;;;5133784;27;1423;-65
2020/12/20 04:59:30;;;;;;;;;;;;;;;;;;5145322;27;1401;-65
2020/12/20 05:01:55;;;;;;;;;;;;;;;;;;5150188;27;1374;-63
2020/12/20 05:04:21;;;;;;;;;;;;;;;;;;5133466;27;1971;-63
2020/12/20 05:06:46;;;;;;;;;;;;;;;;;;5152306;27;893;-63
2020/12/20 05:09:11;;;;;;;;;;;;;;;;;;5153319;27;893;-63
2020/12/20 05:11:36;;;;;;;;;;;;;;;;;;5144598;27;1591;-63
2020/12/20 05:14:01;;;;;;;;;;;;;;;;;;5131652;27;1228;-64
2020/12/20 05:16:26;;;;;;;;;;;;;;;;;;5142847;27;1492;-64
2020/12/20 05:18:52;;;;;;;;;;;;;;;;;;5150082;27;1535;-63
2020/12/20 05:21:17;;;;;;;;;;;;;;;;;;5152620;27;901;-63
2020/12/20 05:23:42;;;;;;;;;;;;;;;;;;5151496;27;1889;-64
2020/12/20 05:26:07;;;;;;;;;;;;;;;;;;5152756;27;1629;-65
2020/12/20 05:28:32;;;;;;;;;;;;;;;;;;5151854;27;1422;-66
2020/12/20 05:30:57;;;;;;;;;;;;;;;;;;5152879;27;873;-63
2020/12/20 05:33:23;;;;;;;;;;;;;;;;;;5151195;27;1415;-64
2020/12/20 05:35:48;;;;;;;;;;;;;;;;;;5152679;27;909;-65
2020/12/20 05:38:13;;;;;;;;;;;;;;;;;;5152140;27;861;-65
2020/12/20 05:40:38;;;;;;;;;;;;;;;;;;5151879;27;1421;-64
2020/12/20 05:43:03;;;;;;;;;;;;;;;;;;5153108;27;1950;-64
2020/12/20 05:45:28;;;;;;;;;;;;;;;;;;5153239;27;822;-64
2020/12/20 05:47:54;;;;;;;;;;;;;;;;;;5146267;27;1438;-63
2020/12/20 05:50:19;;;;;;;;;;;;;;;;;;5132100;27;834;-63
2020/12/20 05:52:44;;;;;;;;;;;;;;;;;;5148150;27;1508;-64
2020/12/20 05:55:09;;;;;;;;;;;;;;;;;;5152406;27;917;-63
2020/12/20 05:57:34;;;;;;;;;;;;;;;;;;5149406;27;1573;-64
2020/12/20 05:59:59;;;;;;;;;;;;;;;;;;5150311;27;1689;-63
2020/12/20 06:02:25;;;;;;;;;;;;;;;;;;5148660;27;1901;-64
2020/12/20 06:04:51;;;;;;;;;;;;;;;;;;5143076;27;1554;-63
2020/12/20 06:07:16;;;;;;;;;;;;;;;;;;5138240;27;1589;-63
2020/12/20 06:09:41;;;;;;;;;;;;;;;;;;5142813;27;1789;-64
2020/12/20 06:12:06;;;;;;;;;;;;;;;;;;5151404;27;1781;-64
2020/12/20 06:14:31;;;;;;;;;;;;;;;;;;5132559;27;1415;-64
2020/12/20 06:16:56;;;;;;;;;;;;;;;;;;5149504;27;1482;-63
2020/12/20 06:19:22;;;;;;;;;;;;;;;;;;5149605;27;1421;-63
2020/12/20 06:21:47;;;;;;;;;;;;;;;;;;5151070;27;1026;-64
2020/12/20 06:24:12;;;;;;;;;;;;;;;;;;5147418;27;1882;-64
2020/12/20 06:26:37;;;;;;;;;;;;;;;;;;5148995;27;1383;-63
2020/12/20 06:29:02;;;;;;;;;;;;;;;;;;5150017;27;1350;-64
2020/12/20 06:31:27;;;;;;;;;;;;;;;;;;5148363;27;1536;-63
2020/12/20 06:33:52;;;;;;;;;;;;;;;;;;5149642;27;1615;-65
2020/12/20 06:36:18;;;;;;;;;;;;;;;;;;5149734;27;1502;-64
2020/12/20 06:38:43;;;;;;;;;;;;;;;;;;5148505;27;1473;-63
2020/12/20 06:41:08;;;;;;;;;;;;;;;;;;5127552;27;1516;-64
2020/12/20 06:43:33;;;;;;;;;;;;;;;;;;5140372;27;1926;-64
2020/12/20 06:45:58;;;;;;;;;;;;;;;;;;5150964;27;826;-64
2020/12/20 06:48:24;;;;;;;;;;;;;;;;;;5146832;27;1644;-64
2020/12/20 06:51:40;;;;;;;;;;;;;;;;;;5070708;27;1508;-66
2020/12/20 06:54:05;;;;;;;;;;;;;;;;;;5062566;28;1499;-66
2020/12/20 06:56:30;;;;;;;;;;;;;;;;;;5045622;28;1597;-65
2020/12/20 06:58:56;;;;;;;;;;;;;;;;;;5051735;28;1560;-66
2020/12/20 07:01:21;;;;;;;;;;;;;;;;;;5058089;28;1511;-66
2020/12/20 07:03:46;;;;;;;;;;;;;;;;;;5061840;28;1551;-64
2020/12/20 07:06:11;;;;;;;;;;;;;;;;;;5058816;28;1520;-66
2020/12/20 07:08:36;;;;;;;;;;;;;;;;;;5065959;28;870;-64
2020/12/20 07:11:02;;;;;;;;;;;;;;;;;;5065793;28;1985;-68
2020/12/20 07:13:27;;;;;;;;;;;;;;;;;;5078987;28;1448;-67
2020/12/20 07:15:53;;;;;;;;;;;;;;;;;;5045008;28;889;-66
2020/12/20 07:18:18;;;;;;;;;;;;;;;;;;5043845;28;1575;-64
2020/12/20 07:20:43;;;;;;;;;;;;;;;;;;5044109;28;890;-65
2020/12/20 07:23:09;;;;;;;;;;;;;;;;;;5056693;28;1557;-64
2020/12/20 07:25:35;;;;;;;;;;;;;;;;;;5054939;28;1554;-66
2020/12/20 07:28:00;;;;;;;;;;;;;;;;;;5067393;28;1222;-64
2020/12/20 07:30:25;;;;;;;;;;;;;;;;;;5080801;28;1886;-64
2020/12/20 07:32:50;;;;;;;;;;;;;;;;;;5083976;28;1159;-65
2020/12/20 07:35:15;;;;;;;;;;;;;;;;;;5068444;28;1215;-65
2020/12/20 07:37:41;;;;;;;;;;;;;;;;;;5078929;28;1625;-65
2020/12/20 07:40:06;;;;;;;;;;;;;;;;;;5065114;28;1227;-66
2020/12/20 07:42:31;;;;;;;;;;;;;;;;;;5065321;28;889;-64
2020/12/20 07:44:56;;;;;;;;;;;;;;;;;;5065042;28;934;-66
2020/12/20 07:47:21;;;;;;;;;;;;;;;;;;5062901;28;1521;-66
2020/12/20 07:49:46;;;;;;;;;;;;;;;;;;5064819;28;1882;-65
2020/12/20 07:52:12;;;;;;;;;;;;;;;;;;5062214;28;1440;-64
2020/12/20 07:54:37;;;;;;;;;;;;;;;;;;5073474;28;1614;-68
2020/12/20 07:57:02;;;;;;;;;;;;;;;;;;5068613;28;1374;-73
2020/12/20 07:59:27;;;;;;;;;;;;;;;;;;5062385;28;1504;-66
2020/12/20 08:01:52;;;;;;;;;;;;;;;;;;5063650;28;1450;-66
2020/12/20 08:04:22;;;;;;;;;;;;;;;;;;5057000;28;1363;-63
2020/12/20 08:06:47;;;;;;;;;;;;;;;;;;5049981;28;1438;-59
2020/12/20 08:09:12;;;;;;;;;;;;;;;;;;5050597;28;1965;-60
2020/12/20 08:11:38;;;;;;;;;;;;;;;;;;5049942;28;831;-61
2020/12/20 08:14:03;;;;;;;;;;;;;;;;;;5049732;28;1496;-65
2020/12/20 08:16:28;;;;;;;;;;;;;;;;;;5065814;28;1529;-61
2020/12/20 08:18:53;;;;;;;;;;;;;;;;;;5049434;28;1453;-60
2020/12/20 08:21:19;;;;;;;;;;;;;;;;;;5051806;28;1518;-60
2020/12/20 08:23:44;;;;;;;;;;;;;;;;;;5062924;28;1464;-61
2020/12/20 08:26:09;;;;;;;;;;;;;;;;;;5060755;28;1578;-60
2020/12/20 08:28:34;;;;;;;;;;;;;;;;;;5055113;28;1447;-60
2020/12/20 08:31:01;;;;;;;;;;;;;;;;;;5066966;28;1992;-60
2020/12/20 08:33:26;;;;;;;;;;;;;;;;;;5080232;28;1445;-60
2020/12/20 08:35:52;;;;;;;;;;;;;;;;;;5084418;28;1518;-60
2020/12/20 08:38:18;;;;;;;;;;;;;;;;;;5072681;28;1261;-71
2020/12/20 08:40:44;;;;;;;;;;;;;;;;;;5071025;28;925;-71
2020/12/20 08:43:09;;;;;;;;;;;;;;;;;;5068851;28;1504;-71
2020/12/20 08:45:34;;;;;;;;;;;;;;;;;;5072234;28;1290;-70
2020/12/20 08:47:59;;;;;;;;;;;;;;;;;;5071212;28;1299;-71
2020/12/20 08:50:24;;;;;;;;;;;;;;;;;;5068707;28;1886;-72
2020/12/20 08:52:49;;;;;;;;;;;;;;;;;;5069128;28;1615;-71
2020/12/20 08:55:15;;;;;;;;;;;;;;;;;;5068800;28;916;-70
2020/12/20 08:57:40;;;;;;;;;;;;;;;;;;5069925;28;994;-72
2020/12/20 09:00:05;;;;;;;;;;;;;;;;;;5081602;28;957;-70
2020/12/20 09:02:30;;;;;;;;;;;;;;;;;;5067167;28;1457;-68
2020/12/20 09:04:55;;;;;;;;;;;;;;;;;;5069865;28;1529;-72
2020/12/20 09:07:21;;;;;;;;;;;;;;;;;;5066855;28;1618;-70
2020/12/20 09:09:46;;;;;;;;;;;;;;;;;;5078092;28;2053;-70
2020/12/20 09:12:11;;;;;;;;;;;;;;;;;;5077221;28;1533;-70
2020/12/20 09:14:36;;;;;;;;;;;;;;;;;;5073263;28;1517;-69
2020/12/20 09:17:01;;;;;;;;;;;;;;;;;;5071213;28;1663;-69
2020/12/20 09:19:26;;;;;;;;;;;;;;;;;;5068288;28;1560;-71
2020/12/20 09:21:52;;;;;;;;;;;;;;;;;;5070378;28;1116;-73
2020/12/20 09:24:17;;;;;;;;;;;;;;;;;;5068739;28;1184;-69
2020/12/20 09:26:42;;;;;;;;;;;;;;;;;;5069307;28;1480;-68
2020/12/20 09:29:08;;;;;;;;;;;;;;;;;;5068529;28;1465;-72
2020/12/20 09:31:33;;;;;;;;;;;;;;;;;;5073291;28;1878;-67
2020/12/20 09:34:01;;;;;;;;;;;;;;;;;;5070042;28;1647;-67
2020/12/20 09:36:26;;;;;;;;;;;;;;;;;;5067252;28;1483;-65
2020/12/20 09:38:51;;;;;;;;;;;;;;;;;;5071832;28;1271;-64
2020/12/20 09:41:16;;;;;;;;;;;;;;;;;;5072063;28;1662;-63
2020/12/20 09:43:41;;;;;;;;;;;;;;;;;;5067999;28;918;-63
2020/12/20 09:46:06;;;;;;;;;;;;;;;;;;5067472;28;1554;-62
2020/12/20 09:48:32;;;;;;;;;;;;;;;;;;5068951;28;1238;-63
2020/12/20 09:50:57;;;;;;;;;;;;;;;;;;5068458;28;1951;-63
2020/12/20 09:53:22;;;;;;;;;;;;;;;;;;5069374;28;1367;-63
2020/12/20 09:55:48;;;;;;;;;;;;;;;;;;5071181;28;1094;-63
2020/12/20 09:58:13;;;;;;;;;;;;;;;;;;5067817;28;1633;-63
2020/12/20 10:00:38;;;;;;;;;;;;;;;;;;5072181;28;1406;-63
2020/12/20 10:03:03;;;;;;;;;;;;;;;;;;5067681;28;979;-63
2020/12/20 10:05:28;;;;;;;;;;;;;;;;;;5070063;28;985;-63
2020/12/20 10:07:53;;;;;;;;;;;;;;;;;;5077814;28;1517;-63
2020/12/20 10:10:19;;;;;;;;;;;;;;;;;;5070465;28;1974;-63
2020/12/20 10:12:44;;;;;;;;;;;;;;;;;;5067532;28;1496;-62
2020/12/20 10:15:09;;;;;;;;;;;;;;;;;;5073515;28;824;-62
2020/12/20 10:17:34;;;;;;;;;;;;;;;;;;5069701;28;838;-62
2020/12/20 10:19:59;;;;;;;;;;;;;;;;;;5079462;28;1522;-62
2020/12/20 10:22:24;;;;;;;;;;;;;;;;;;5066552;28;1499;-63
2020/12/20 10:24:50;;;;;;;;;;;;;;;;;;5071506;28;1287;-62
2020/12/20 10:27:15;;;;;;;;;;;;;;;;;;5063782;28;1496;-63
2020/12/20 10:29:40;;;;;;;;;;;;;;;;;;5064879;28;1959;-62
2020/12/20 10:32:05;;;;;;;;;;;;;;;;;;5077698;28;1418;-63
2020/12/20 10:34:30;;;;;;;;;;;;;;;;;;5074072;28;1633;-61
2020/12/20 10:36:56;;;;;;;;;;;;;;;;;;5075768;28;1406;-62
2020/12/20 10:39:21;;;;;;;;;;;;;;;;;;5074629;28;1488;-62
2020/12/20 10:41:46;;;;;;;;;;;;;;;;;;5073539;28;1524;-61
2020/12/20 10:44:11;;;;;;;;;;;;;;;;;;5076118;28;1404;-62
2020/12/20 10:46:36;;;;;;;;;;;;;;;;;;5076073;28;1422;-62
2020/12/20 10:49:02;;;;;;;;;;;;;;;;;;5074590;28;1469;-62
2020/12/20 10:51:27;;;;;;;;;;;;;;;;;;5075573;28;2010;-64
2020/12/20 10:53:52;;;;;;;;;;;;;;;;;;5075722;28;1076;-63
2020/12/20 10:56:18;;;;;;;;;;;;;;;;;;5075622;28;842;-62
2020/12/20 10:58:43;;;;;;;;;;;;;;;;;;5076292;28;1425;-62
2020/12/20 11:01:09;;;;;;;;;;;;;;;;;;5074789;28;1537;-61
2020/12/20 11:03:34;;;;;;;;;;;;;;;;;;5077333;28;1720;-62
2020/12/20 11:05:59;;;;;;;;;;;;;;;;;;5076509;28;894;-63
2020/12/20 11:08:24;;;;;;;;;;;;;;;;;;5077872;28;973;-62
2020/12/20 11:10:49;;;;;;;;;;;;;;;;;;5075325;28;1968;-63
2020/12/20 11:13:14;;;;;;;;;;;;;;;;;;5071926;28;1683;-61
2020/12/20 11:15:40;;;;;;;;;;;;;;;;;;5076918;28;1530;-63
2020/12/20 11:18:05;;;;;;;;;;;;;;;;;;5074582;28;1691;-62
2020/12/20 11:20:30;;;;;;;;;;;;;;;;;;5076750;28;1561;-63
2020/12/20 11:22:55;;;;;;;;;;;;;;;;;;5075181;28;1427;-63
2020/12/20 11:25:21;;;;;;;;;;;;;;;;;;5076373;28;854;-63
2020/12/20 11:27:46;;;;;;;;;;;;;;;;;;5077014;28;839;-63
2020/12/20 11:30:11;;;;;;;;;;;;;;;;;;5077466;28;1894;-63
2020/12/20 11:32:38;;;;;;;;;;;;;;;;;;5075619;28;1499;-63
2020/12/20 11:35:04;;;;;;;;;;;;;;;;;;5077490;28;850;-63
2020/12/20 11:37:29;;;;;;;;;;;;;;;;;;5076267;28;1540;-63
2020/12/20 11:39:54;;;;;;;;;;;;;;;;;;5057504;28;1713;-63
2020/12/20 11:42:19;;;;;;;;;;;;;;;;;;5050481;28;834;-63
2020/12/20 11:44:44;;;;;;;;;;;;;;;;;;5056495;28;1720;-63
2020/12/20 11:47:10;;;;;;;;;;;;;;;;;;5058116;28;1745;-63
2020/12/20 11:49:35;;;;;;;;;;;;;;;;;;5078430;28;1964;-62
2020/12/20 11:52:00;;;;;;;;;;;;;;;;;;5080796;28;1593;-64
2020/12/20 11:54:25;;;;;;;;;;;;;;;;;;5074632;28;1600;-63
2020/12/20 11:56:50;;;;;;;;;;;;;;;;;;5065769;28;1465;-62
2020/12/20 11:59:16;;;;;;;;;;;;;;;;;;5065591;28;1545;-64
2020/12/20 12:01:41;;;;;;;;;;;;;;;;;;5057895;28;1519;-64
2020/12/20 12:04:06;;;;;;;;;;;;;;;;;;5068271;28;1505;-61
2020/12/20 12:06:31;;;;;;;;;;;;;;;;;;5050253;28;1569;-64
2020/12/20 12:08:56;;;;;;;;;;;;;;;;;;5048850;28;1433;-64
2020/12/20 12:11:21;;;;;;;;;;;;;;;;;;5049746;28;1882;-62
2020/12/20 12:13:47;;;;;;;;;;;;;;;;;;5059708;28;1606;-61
2020/12/20 12:16:13;;;;;;;;;;;;;;;;;;5054831;28;1513;-64
2020/12/20 12:18:38;;;;;;;;;;;;;;;;;;5051138;28;1571;-62
2020/12/20 12:21:03;;;;;;;;;;;;;;;;;;5069847;28;1147;-61
2020/12/20 12:23:28;;;;;;;;;;;;;;;;;;5068549;28;1633;-62
2020/12/20 12:25:54;;;;;;;;;;;;;;;;;;5070010;28;1508;-64
2020/12/20 12:28:20;;;;;;;;;;;;;;;;;;5066367;28;1473;-63
2020/12/20 12:30:45;;;;;;;;;;;;;;;;;;5069063;28;1946;-63
2020/12/20 12:33:10;;;;;;;;;;;;;;;;;;5064139;28;1472;-62
2020/12/20 12:35:35;;;;;;;;;;;;;;;;;;5067844;28;1480;-62
2020/12/20 12:38:00;;;;;;;;;;;;;;;;;;5068310;28;1502;-62
2020/12/20 12:40:25;;;;;;;;;;;;;;;;;;5068637;28;1355;-62
2020/12/20 12:42:51;;;;;;;;;;;;;;;;;;5068888;28;1386;-62
2020/12/20 12:45:18;;;;;;;;;;;;;;;;;;5069234;28;858;-62
2020/12/20 12:47:43;;;;;;;;;;;;;;;;;;5054091;28;1628;-62
2020/12/20 12:50:08;;;;;;;;;;;;;;;;;;5047685;28;1894;-62
2020/12/20 12:52:33;;;;;;;;;;;;;;;;;;5053700;28;1470;-63
2020/12/20 12:54:59;;;;;;;;;;;;;;;;;;5058424;28;1363;-63
2020/12/20 12:57:24;;;;;;;;;;;;;;;;;;5068181;28;1672;-62
2020/12/20 12:59:49;;;;;;;;;;;;;;;;;;5069013;28;953;-63
2020/12/20 13:02:14;;;;;;;;;;;;;;;;;;5064278;28;1588;-64
2020/12/20 13:04:39;;;;;;;;;;;;;;;;;;5049212;28;906;-62
2020/12/20 13:07:04;;;;;;;;;;;;;;;;;;5049923;28;980;-61
2020/12/20 13:09:30;;;;;;;;;;;;;;;;;;5050310;28;1997;-63
2020/12/20 13:11:55;;;;;;;;;;;;;;;;;;5059830;28;1618;-63
2020/12/20 13:14:20;;;;;;;;;;;;;;;;;;5055667;28;1418;-63
2020/12/20 13:16:45;;;;;;;;;;;;;;;;;;5051305;28;1530;-61
2020/12/20 13:19:10;;;;;;;;;;;;;;;;;;5085067;28;1379;-62
2020/12/20 13:21:36;;;;;;;;;;;;;;;;;;5077167;28;1226;-63
2020/12/20 13:24:01;;;;;;;;;;;;;;;;;;5060873;28;1390;-62
2020/12/20 13:26:26;;;;;;;;;;;;;;;;;;5066066;28;1449;-64
2020/12/20 13:28:51;;;;;;;;;;;;;;;;;;5068379;28;942;-62
2020/12/20 13:31:17;;;;;;;;;;;;;;;;;;5067343;28;1941;-63
2020/12/20 13:33:42;;;;;;;;;;;;;;;;;;5068137;28;902;-63
2020/12/20 13:36:07;;;;;;;;;;;;;;;;;;5067214;28;1565;-62
2020/12/20 13:38:32;;;;;;;;;;;;;;;;;;5061913;28;1489;-62
2020/12/20 13:40:57;;;;;;;;;;;;;;;;;;5058035;28;1577;-62
2020/12/20 13:43:22;;;;;;;;;;;;;;;;;;5067405;28;1426;-64
2020/12/20 13:45:48;;;;;;;;;;;;;;;;;;5048557;28;1375;-62
2020/12/20 13:48:13;;;;;;;;;;;;;;;;;;5047810;28;898;-64
2020/12/20 13:50:38;;;;;;;;;;;;;;;;;;5049164;28;1981;-62
2020/12/20 13:53:03;;;;;;;;;;;;;;;;;;5049516;28;1608;-62
2020/12/20 13:55:29;;;;;;;;;;;;;;;;;;5053459;28;1516;-63
2020/12/20 13:57:54;;;;;;;;;;;;;;;;;;5067659;28;847;-63
2020/12/20 14:00:19;;;;;;;;;;;;;;;;;;5065618;28;1899;-64
2020/12/20 14:02:44;;;;;;;;;;;;;;;;;;5067194;28;1223;-63
2020/12/20 14:05:09;;;;;;;;;;;;;;;;;;5067311;28;942;-62
2020/12/20 14:07:34;;;;;;;;;;;;;;;;;;5045940;28;1375;-63
2020/12/20 14:09:59;;;;;;;;;;;;;;;;;;5063965;28;1949;-64
2020/12/20 14:12:25;;;;;;;;;;;;;;;;;;5047036;28;894;-63
2020/12/20 14:14:50;;;;;;;;;;;;;;;;;;5047392;28;1319;-63
2020/12/20 14:17:15;;;;;;;;;;;;;;;;;;5054825;28;1650;-62
2020/12/20 14:19:40;;;;;;;;;;;;;;;;;;5055787;28;1446;-63
2020/12/20 14:22:05;;;;;;;;;;;;;;;;;;5049559;28;1259;-61
2020/12/20 14:24:30;;;;;;;;;;;;;;;;;;5068056;28;807;-63
2020/12/20 14:26:56;;;;;;;;;;;;;;;;;;5067989;28;859;-64
2020/12/20 14:29:21;;;;;;;;;;;;;;;;;;5068823;28;942;-64
2020/12/20 14:31:46;;;;;;;;;;;;;;;;;;5064950;28;1890;-64
2020/12/20 14:34:11;;;;;;;;;;;;;;;;;;5062603;28;1462;-65
2020/12/20 14:36:36;;;;;;;;;;;;;;;;;;5047644;28;902;-64
2020/12/20 14:39:01;;;;;;;;;;;;;;;;;;5048438;28;878;-64
2020/12/20 14:41:27;;;;;;;;;;;;;;;;;;5048562;28;917;-64
2020/12/20 14:43:52;;;;;;;;;;;;;;;;;;5046079;28;1609;-64
2020/12/20 14:46:17;;;;;;;;;;;;;;;;;;5062462;28;1537;-64
2020/12/20 14:48:42;;;;;;;;;;;;;;;;;;5051803;28;1451;-65
2020/12/20 14:51:08;;;;;;;;;;;;;;;;;;5067055;28;1909;-65
2020/12/20 14:53:33;;;;;;;;;;;;;;;;;;5055024;28;1500;-64
2020/12/20 14:55:58;;;;;;;;;;;;;;;;;;5064896;28;1579;-64
2020/12/20 14:58:23;;;;;;;;;;;;;;;;;;5066911;28;815;-64
2020/12/20 15:00:48;;;;;;;;;;;;;;;;;;5060938;28;1627;-61
2020/12/20 15:03:14;;;;;;;;;;;;;;;;;;5053673;28;1467;-64
2020/12/20 15:05:39;;;;;;;;;;;;;;;;;;5046710;28;1645;-62
2020/12/20 15:08:04;;;;;;;;;;;;;;;;;;5050095;28;1802;-65
2020/12/20 15:10:29;;;;;;;;;;;;;;;;;;5061013;28;1898;-64
2020/12/20 15:12:54;;;;;;;;;;;;;;;;;;5052390;28;1708;-64
2020/12/20 15:15:19;;;;;;;;;;;;;;;;;;5063243;28;1500;-64
2020/12/20 15:17:45;;;;;;;;;;;;;;;;;;5069003;28;1367;-64
2020/12/20 15:20:10;;;;;;;;;;;;;;;;;;5065783;28;1469;-66
2020/12/20 15:22:35;;;;;;;;;;;;;;;;;;5073466;28;878;-63
2020/12/20 15:25:01;;;;;;;;;;;;;;;;;;5074344;28;1472;-64
2020/12/20 15:27:26;;;;;;;;;;;;;;;;;;5061967;28;1550;-62
2020/12/20 15:29:51;;;;;;;;;;;;;;;;;;5069056;28;1953;-62
2020/12/20 15:32:16;;;;;;;;;;;;;;;;;;5068617;28;1446;-62
2020/12/20 15:34:43;;;;;;;;;;;;;;;;;;5070359;28;906;-62
2020/12/20 15:37:08;;;;;;;;;;;;;;;;;;5056573;28;1520;-63
2020/12/20 15:39:33;;;;;;;;;;;;;;;;;;5058838;28;1546;-63
2020/12/20 15:41:58;;;;;;;;;;;;;;;;;;5058474;28;1462;-63
2020/12/20 15:44:23;;;;;;;;;;;;;;;;;;5064171;28;1368;-64
2020/12/20 15:46:48;;;;;;;;;;;;;;;;;;5059343;28;1509;-63
2020/12/20 15:49:13;;;;;;;;;;;;;;;;;;5050117;28;811;-62
2020/12/20 15:51:39;;;;;;;;;;;;;;;;;;5050009;28;1890;-63
2020/12/20 15:54:04;;;;;;;;;;;;;;;;;;5054026;28;1808;-63
2020/12/20 15:56:29;;;;;;;;;;;;;;;;;;5057778;28;1654;-62
2020/12/20 15:58:56;;;;;;;;;;;;;;;;;;5062804;28;1454;-63
2020/12/20 16:01:21;;;;;;;;;;;;;;;;;;5049998;28;818;-64
2020/12/20 16:03:46;;;;;;;;;;;;;;;;;;5056624;28;1577;-63
2020/12/20 16:06:11;;;;;;;;;;;;;;;;;;5085714;28;1213;-62
2020/12/20 16:08:36;;;;;;;;;;;;;;;;;;5070366;28;894;-64
2020/12/20 16:11:02;;;;;;;;;;;;;;;;;;5067553;28;1890;-63
2020/12/20 16:13:27;;;;;;;;;;;;;;;;;;5050347;28;1304;-64
2020/12/20 16:15:52;;;;;;;;;;;;;;;;;;5057914;28;1881;-62
2020/12/20 16:18:25;;;;;;;;;;;;;;;;;;5055281;28;1473;-61
2020/12/20 16:20:50;;;;;;;;;;;;;;;;;;5050954;28;1709;-64
2020/12/20 16:23:15;;;;;;;;;;;;;;;;;;5060788;28;1355;-62
2020/12/20 16:25:40;;;;;;;;;;;;;;;;;;5052691;28;1897;-64
2020/12/20 16:28:06;;;;;;;;;;;;;;;;;;5056194;28;1580;-65
2020/12/20 16:30:31;;;;;;;;;;;;;;;;;;5058573;28;1957;-64
2020/12/20 16:32:56;;;;;;;;;;;;;;;;;;5049174;28;839;-63
2020/12/20 16:35:21;;;;;;;;;;;;;;;;;;5047973;28;866;-63
2020/12/20 16:37:46;;;;;;;;;;;;;;;;;;5049837;28;1582;-62
2020/12/20 16:40:11;;;;;;;;;;;;;;;;;;5050395;28;922;-63
2020/12/20 16:42:38;;;;;;;;;;;;;;;;;;5060074;28;1064;-61
2020/12/20 16:45:03;;;;;;;;;;;;;;;;;;5063082;28;1515;-62
2020/12/20 16:47:28;;;;;;;;;;;;;;;;;;5048561;28;1556;-63
2020/12/20 16:49:53;;;;;;;;;;;;;;;;;;5068291;28;1897;-62
2020/12/20 16:52:18;;;;;;;;;;;;;;;;;;5069152;28;1006;-62